sensor_id;sensor_type;location;lat;lon;timestamp;temperature;humidity
54202;DHT22;40108;53.152;5.844;2023-04-24T00:01:47;10.70;96.10
54202;DHT22;40108;53.152;5.844;2023-04-24T00:04:13;10.80;96.00
54202;DHT22;40108;53.152;5.844;2023-04-24T00:06:42;10.70;96.00
54202;DHT22;40108;53.152;5.844;2023-04-24T00:09:08;10.80;96.00
54202;DHT22;40108;53.152;5.844;2023-04-24T00:11:35;10.80;96.00
54202;DHT22;40108;53.152;5.844;2023-04-24T00:14:02;10.80;96.00
54202;DHT22;40108;53.152;5.844;2023-04-24T00:16:27;10.80;96.10
54202;DHT22;40108;53.152;5.844;2023-04-24T00:18:53;10.80;96.10
54202;DHT22;40108;53.152;5.844;2023-04-24T00:21:19;10.80;96.20
54202;DHT22;40108;53.152;5.844;2023-04-24T00:23:46;10.80;96.10
54202;DHT22;40108;53.152;5.844;2023-04-24T00:26:11;10.80;96.20
54202;DHT22;40108;53.152;5.844;2023-04-24T00:28:37;10.80;96.10
54202;DHT22;40108;53.152;5.844;2023-04-24T00:31:03;10.80;96.10
54202;DHT22;40108;53.152;5.844;2023-04-24T00:33:28;10.80;96.10
54202;DHT22;40108;53.152;5.844;2023-04-24T00:35:54;10.90;96.20
54202;DHT22;40108;53.152;5.844;2023-04-24T00:38:20;10.80;96.00
54202;DHT22;40108;53.152;5.844;2023-04-24T00:40:47;10.80;95.90
54202;DHT22;40108;53.152;5.844;2023-04-24T00:43:15;10.80;95.90
54202;DHT22;40108;53.152;5.844;2023-04-24T00:45:41;10.80;95.90
54202;DHT22;40108;53.152;5.844;2023-04-24T00:48:07;10.80;95.80
54202;DHT22;40108;53.152;5.844;2023-04-24T00:50:35;10.80;95.80
54202;DHT22;40108;53.152;5.844;2023-04-24T00:53:01;10.80;95.70
54202;DHT22;40108;53.152;5.844;2023-04-24T00:55:26;10.80;95.80
54202;DHT22;40108;53.152;5.844;2023-04-24T00:57:52;10.80;95.80
54202;DHT22;40108;53.152;5.844;2023-04-24T01:00:18;10.80;95.80
54202;DHT22;40108;53.152;5.844;2023-04-24T01:02:44;10.80;95.80
54202;DHT22;40108;53.152;5.844;2023-04-24T01:05:12;10.80;95.80
54202;DHT22;40108;53.152;5.844;2023-04-24T01:07:39;10.80;95.70
54202;DHT22;40108;53.152;5.844;2023-04-24T01:10:07;10.80;95.80
54202;DHT22;40108;53.152;5.844;2023-04-24T01:12:34;10.70;95.70
54202;DHT22;40108;53.152;5.844;2023-04-24T01:14:59;10.80;95.70
54202;DHT22;40108;53.152;5.844;2023-04-24T01:17:26;10.70;95.70
54202;DHT22;40108;53.152;5.844;2023-04-24T01:19:52;10.70;95.70
54202;DHT22;40108;53.152;5.844;2023-04-24T01:22:22;10.70;95.70
54202;DHT22;40108;53.152;5.844;2023-04-24T01:24:48;10.70;95.70
54202;DHT22;40108;53.152;5.844;2023-04-24T01:27:14;10.70;95.70
54202;DHT22;40108;53.152;5.844;2023-04-24T01:29:40;10.70;95.70
54202;DHT22;40108;53.152;5.844;2023-04-24T01:32:06;10.70;95.70
54202;DHT22;40108;53.152;5.844;2023-04-24T01:34:32;10.70;95.70
54202;DHT22;40108;53.152;5.844;2023-04-24T01:36:58;10.70;95.70
54202;DHT22;40108;53.152;5.844;2023-04-24T01:39:24;10.70;95.70
54202;DHT22;40108;53.152;5.844;2023-04-24T01:41:54;10.70;95.60
54202;DHT22;40108;53.152;5.844;2023-04-24T01:44:21;10.70;95.60
54202;DHT22;40108;53.152;5.844;2023-04-24T01:46:47;10.70;95.70
54202;DHT22;40108;53.152;5.844;2023-04-24T01:49:13;10.70;95.80
54202;DHT22;40108;53.152;5.844;2023-04-24T01:51:39;10.70;95.80
54202;DHT22;40108;53.152;5.844;2023-04-24T01:54:05;10.70;95.80
54202;DHT22;40108;53.152;5.844;2023-04-24T01:56:33;10.70;95.90
54202;DHT22;40108;53.152;5.844;2023-04-24T01:58:59;10.70;95.90
54202;DHT22;40108;53.152;5.844;2023-04-24T02:01:26;10.70;96.00
54202;DHT22;40108;53.152;5.844;2023-04-24T02:03:51;10.70;96.00
54202;DHT22;40108;53.152;5.844;2023-04-24T02:06:17;10.70;96.10
54202;DHT22;40108;53.152;5.844;2023-04-24T02:08:43;10.70;96.20
54202;DHT22;40108;53.152;5.844;2023-04-24T02:11:09;10.70;96.20
54202;DHT22;40108;53.152;5.844;2023-04-24T02:13:35;10.70;96.30
54202;DHT22;40108;53.152;5.844;2023-04-24T02:16:01;10.70;96.40
54202;DHT22;40108;53.152;5.844;2023-04-24T02:18:27;10.70;96.40
54202;DHT22;40108;53.152;5.844;2023-04-24T02:20:52;10.70;96.50
54202;DHT22;40108;53.152;5.844;2023-04-24T02:23:19;10.70;96.50
54202;DHT22;40108;53.152;5.844;2023-04-24T02:25:44;10.70;96.50
54202;DHT22;40108;53.152;5.844;2023-04-24T02:28:11;10.70;96.60
54202;DHT22;40108;53.152;5.844;2023-04-24T02:30:36;10.70;96.60
54202;DHT22;40108;53.152;5.844;2023-04-24T02:33:02;10.70;96.60
54202;DHT22;40108;53.152;5.844;2023-04-24T02:35:28;10.70;96.50
54202;DHT22;40108;53.152;5.844;2023-04-24T02:37:54;10.70;96.50
54202;DHT22;40108;53.152;5.844;2023-04-24T02:40:20;10.80;96.50
54202;DHT22;40108;53.152;5.844;2023-04-24T02:42:45;10.70;96.60
54202;DHT22;40108;53.152;5.844;2023-04-24T02:45:11;10.70;96.50
54202;DHT22;40108;53.152;5.844;2023-04-24T02:47:37;10.70;96.50
54202;DHT22;40108;53.152;5.844;2023-04-24T02:50:03;10.60;96.50
54202;DHT22;40108;53.152;5.844;2023-04-24T02:52:28;10.50;96.40
54202;DHT22;40108;53.152;5.844;2023-04-24T02:54:55;10.50;96.50
54202;DHT22;40108;53.152;5.844;2023-04-24T02:57:20;10.50;96.50
54202;DHT22;40108;53.152;5.844;2023-04-24T02:59:46;10.50;96.40
54202;DHT22;40108;53.152;5.844;2023-04-24T03:02:12;10.40;96.40
54202;DHT22;40108;53.152;5.844;2023-04-24T03:04:37;10.40;96.40
54202;DHT22;40108;53.152;5.844;2023-04-24T03:07:03;10.40;96.40
54202;DHT22;40108;53.152;5.844;2023-04-24T03:09:29;10.30;96.40
54202;DHT22;40108;53.152;5.844;2023-04-24T03:11:55;10.30;96.40
54202;DHT22;40108;53.152;5.844;2023-04-24T03:14:21;10.30;96.50
54202;DHT22;40108;53.152;5.844;2023-04-24T03:16:47;10.20;96.40
54202;DHT22;40108;53.152;5.844;2023-04-24T03:19:13;10.20;96.50
54202;DHT22;40108;53.152;5.844;2023-04-24T03:21:39;10.20;96.50
54202;DHT22;40108;53.152;5.844;2023-04-24T03:24:07;10.20;96.50
54202;DHT22;40108;53.152;5.844;2023-04-24T03:26:33;10.20;96.40
54202;DHT22;40108;53.152;5.844;2023-04-24T03:28:59;10.20;96.50
54202;DHT22;40108;53.152;5.844;2023-04-24T03:31:25;10.20;96.50
54202;DHT22;40108;53.152;5.844;2023-04-24T03:33:50;10.20;96.50
54202;DHT22;40108;53.152;5.844;2023-04-24T03:36:16;10.20;96.50
54202;DHT22;40108;53.152;5.844;2023-04-24T03:38:43;10.20;96.50
54202;DHT22;40108;53.152;5.844;2023-04-24T03:41:08;10.10;96.50
54202;DHT22;40108;53.152;5.844;2023-04-24T03:43:34;10.20;96.60
54202;DHT22;40108;53.152;5.844;2023-04-24T03:46:00;10.20;96.60
54202;DHT22;40108;53.152;5.844;2023-04-24T03:48:26;10.10;96.50
54202;DHT22;40108;53.152;5.844;2023-04-24T03:50:51;10.20;96.60
54202;DHT22;40108;53.152;5.844;2023-04-24T03:53:17;10.20;96.50
54202;DHT22;40108;53.152;5.844;2023-04-24T03:55:43;10.10;96.50
54202;DHT22;40108;53.152;5.844;2023-04-24T03:58:08;10.10;96.50
54202;DHT22;40108;53.152;5.844;2023-04-24T04:00:34;10.10;96.50
54202;DHT22;40108;53.152;5.844;2023-04-24T04:03:00;10.10;96.50
54202;DHT22;40108;53.152;5.844;2023-04-24T04:05:26;10.00;96.50
54202;DHT22;40108;53.152;5.844;2023-04-24T04:07:52;10.00;96.40
54202;DHT22;40108;53.152;5.844;2023-04-24T04:10:18;10.00;96.40
54202;DHT22;40108;53.152;5.844;2023-04-24T04:12:44;9.90;96.30
54202;DHT22;40108;53.152;5.844;2023-04-24T04:15:10;9.90;96.40
54202;DHT22;40108;53.152;5.844;2023-04-24T04:17:35;9.90;96.40
54202;DHT22;40108;53.152;5.844;2023-04-24T04:20:03;9.90;96.40
54202;DHT22;40108;53.152;5.844;2023-04-24T04:22:34;9.90;96.40
54202;DHT22;40108;53.152;5.844;2023-04-24T04:25:00;9.90;96.40
54202;DHT22;40108;53.152;5.844;2023-04-24T04:27:26;9.80;96.30
54202;DHT22;40108;53.152;5.844;2023-04-24T04:29:52;9.80;96.30
54202;DHT22;40108;53.152;5.844;2023-04-24T04:32:18;9.80;96.30
54202;DHT22;40108;53.152;5.844;2023-04-24T04:34:44;9.80;96.30
54202;DHT22;40108;53.152;5.844;2023-04-24T04:37:11;9.70;96.30
54202;DHT22;40108;53.152;5.844;2023-04-24T04:39:38;9.80;96.30
54202;DHT22;40108;53.152;5.844;2023-04-24T04:42:03;9.80;96.30
54202;DHT22;40108;53.152;5.844;2023-04-24T04:44:29;9.70;96.40
54202;DHT22;40108;53.152;5.844;2023-04-24T04:46:56;9.70;96.40
54202;DHT22;40108;53.152;5.844;2023-04-24T04:49:22;9.70;96.40
54202;DHT22;40108;53.152;5.844;2023-04-24T04:51:49;9.70;96.40
54202;DHT22;40108;53.152;5.844;2023-04-24T04:54:16;9.70;96.40
54202;DHT22;40108;53.152;5.844;2023-04-24T04:56:42;9.70;96.40
54202;DHT22;40108;53.152;5.844;2023-04-24T04:59:08;9.70;96.40
54202;DHT22;40108;53.152;5.844;2023-04-24T05:01:33;9.70;96.40
54202;DHT22;40108;53.152;5.844;2023-04-24T05:03:59;9.70;96.40
54202;DHT22;40108;53.152;5.844;2023-04-24T05:06:25;9.70;96.40
54202;DHT22;40108;53.152;5.844;2023-04-24T05:08:51;9.70;96.40
54202;DHT22;40108;53.152;5.844;2023-04-24T05:11:21;9.70;96.40
54202;DHT22;40108;53.152;5.844;2023-04-24T05:13:47;9.70;96.30
54202;DHT22;40108;53.152;5.844;2023-04-24T05:16:12;9.70;96.30
54202;DHT22;40108;53.152;5.844;2023-04-24T05:18:38;9.70;96.30
54202;DHT22;40108;53.152;5.844;2023-04-24T05:21:04;9.70;96.30
54202;DHT22;40108;53.152;5.844;2023-04-24T05:23:30;9.70;96.20
54202;DHT22;40108;53.152;5.844;2023-04-24T05:25:56;9.70;96.10
54202;DHT22;40108;53.152;5.844;2023-04-24T05:28:22;9.70;96.10
54202;DHT22;40108;53.152;5.844;2023-04-24T05:30:47;9.70;96.00
54202;DHT22;40108;53.152;5.844;2023-04-24T05:33:13;9.70;96.00
54202;DHT22;40108;53.152;5.844;2023-04-24T05:35:40;9.70;96.00
54202;DHT22;40108;53.152;5.844;2023-04-24T05:38:11;9.70;96.00
54202;DHT22;40108;53.152;5.844;2023-04-24T05:40:37;9.70;96.00
54202;DHT22;40108;53.152;5.844;2023-04-24T05:43:03;9.60;95.90
54202;DHT22;40108;53.152;5.844;2023-04-24T05:45:28;9.60;95.90
54202;DHT22;40108;53.152;5.844;2023-04-24T05:47:54;9.60;95.90
54202;DHT22;40108;53.152;5.844;2023-04-24T05:50:20;9.60;95.90
54202;DHT22;40108;53.152;5.844;2023-04-24T05:52:46;9.60;95.90
54202;DHT22;40108;53.152;5.844;2023-04-24T05:55:12;9.60;95.90
54202;DHT22;40108;53.152;5.844;2023-04-24T05:57:38;9.60;95.90
54202;DHT22;40108;53.152;5.844;2023-04-24T06:00:04;9.60;95.90
54202;DHT22;40108;53.152;5.844;2023-04-24T06:02:31;9.60;95.90
54202;DHT22;40108;53.152;5.844;2023-04-24T06:05:00;9.60;95.80
54202;DHT22;40108;53.152;5.844;2023-04-24T06:07:27;9.60;95.80
54202;DHT22;40108;53.152;5.844;2023-04-24T06:09:52;9.60;95.90
54202;DHT22;40108;53.152;5.844;2023-04-24T06:12:18;9.60;95.90
54202;DHT22;40108;53.152;5.844;2023-04-24T06:14:43;9.60;95.80
54202;DHT22;40108;53.152;5.844;2023-04-24T06:17:09;9.60;95.90
54202;DHT22;40108;53.152;5.844;2023-04-24T06:19:35;9.60;95.90
54202;DHT22;40108;53.152;5.844;2023-04-24T06:22:00;9.60;95.80
54202;DHT22;40108;53.152;5.844;2023-04-24T06:24:29;9.50;95.70
54202;DHT22;40108;53.152;5.844;2023-04-24T06:26:55;9.60;95.80
54202;DHT22;40108;53.152;5.844;2023-04-24T06:29:22;9.60;95.80
54202;DHT22;40108;53.152;5.844;2023-04-24T06:31:48;9.60;95.70
54202;DHT22;40108;53.152;5.844;2023-04-24T06:34:14;9.50;95.60
54202;DHT22;40108;53.152;5.844;2023-04-24T06:36:40;9.50;95.50
54202;DHT22;40108;53.152;5.844;2023-04-24T06:39:05;9.40;95.40
54202;DHT22;40108;53.152;5.844;2023-04-24T06:41:32;9.30;95.40
54202;DHT22;40108;53.152;5.844;2023-04-24T06:43:57;9.30;95.40
54202;DHT22;40108;53.152;5.844;2023-04-24T06:46:23;9.30;95.40
54202;DHT22;40108;53.152;5.844;2023-04-24T06:48:52;9.30;95.40
54202;DHT22;40108;53.152;5.844;2023-04-24T06:51:18;9.20;95.40
54202;DHT22;40108;53.152;5.844;2023-04-24T06:53:43;9.20;95.30
54202;DHT22;40108;53.152;5.844;2023-04-24T06:56:09;9.20;95.30
54202;DHT22;40108;53.152;5.844;2023-04-24T06:58:35;9.10;95.40
54202;DHT22;40108;53.152;5.844;2023-04-24T07:01:00;9.10;95.40
54202;DHT22;40108;53.152;5.844;2023-04-24T07:03:26;9.10;95.40
54202;DHT22;40108;53.152;5.844;2023-04-24T07:05:52;9.10;95.40
54202;DHT22;40108;53.152;5.844;2023-04-24T07:08:18;9.00;95.30
54202;DHT22;40108;53.152;5.844;2023-04-24T07:10:45;9.00;95.20
54202;DHT22;40108;53.152;5.844;2023-04-24T07:13:11;9.00;95.10
54202;DHT22;40108;53.152;5.844;2023-04-24T07:15:37;9.00;95.00
54202;DHT22;40108;53.152;5.844;2023-04-24T07:18:03;9.00;94.90
54202;DHT22;40108;53.152;5.844;2023-04-24T07:20:28;9.00;95.00
54202;DHT22;40108;53.152;5.844;2023-04-24T07:22:54;9.00;94.80
54202;DHT22;40108;53.152;5.844;2023-04-24T07:25:20;8.90;94.70
54202;DHT22;40108;53.152;5.844;2023-04-24T07:27:46;9.00;94.80
54202;DHT22;40108;53.152;5.844;2023-04-24T07:30:11;9.00;94.70
54202;DHT22;40108;53.152;5.844;2023-04-24T07:32:37;9.10;94.70
54202;DHT22;40108;53.152;5.844;2023-04-24T07:35:03;9.00;94.70
54202;DHT22;40108;53.152;5.844;2023-04-24T07:37:29;9.00;94.60
54202;DHT22;40108;53.152;5.844;2023-04-24T07:39:55;9.00;94.60
54202;DHT22;40108;53.152;5.844;2023-04-24T07:42:20;8.90;94.40
54202;DHT22;40108;53.152;5.844;2023-04-24T07:44:46;8.90;94.30
54202;DHT22;40108;53.152;5.844;2023-04-24T07:47:13;8.90;94.10
54202;DHT22;40108;53.152;5.844;2023-04-24T07:49:41;8.90;94.00
54202;DHT22;40108;53.152;5.844;2023-04-24T07:52:08;8.90;93.90
54202;DHT22;40108;53.152;5.844;2023-04-24T07:54:33;9.00;93.80
54202;DHT22;40108;53.152;5.844;2023-04-24T07:56:59;9.00;93.80
54202;DHT22;40108;53.152;5.844;2023-04-24T07:59:26;9.00;93.80
54202;DHT22;40108;53.152;5.844;2023-04-24T08:01:51;9.10;93.70
54202;DHT22;40108;53.152;5.844;2023-04-24T08:04:17;9.10;93.70
54202;DHT22;40108;53.152;5.844;2023-04-24T08:06:43;9.10;93.60
54202;DHT22;40108;53.152;5.844;2023-04-24T08:09:09;9.20;93.60
54202;DHT22;40108;53.152;5.844;2023-04-24T08:11:35;9.30;93.50
54202;DHT22;40108;53.152;5.844;2023-04-24T08:14:01;9.30;93.40
54202;DHT22;40108;53.152;5.844;2023-04-24T08:16:27;9.40;93.20
54202;DHT22;40108;53.152;5.844;2023-04-24T08:18:53;9.50;93.10
54202;DHT22;40108;53.152;5.844;2023-04-24T08:21:18;9.60;93.10
54202;DHT22;40108;53.152;5.844;2023-04-24T08:23:46;9.70;93.20
54202;DHT22;40108;53.152;5.844;2023-04-24T08:26:12;9.70;93.00
54202;DHT22;40108;53.152;5.844;2023-04-24T08:28:38;9.70;92.70
54202;DHT22;40108;53.152;5.844;2023-04-24T08:31:04;9.60;92.50
54202;DHT22;40108;53.152;5.844;2023-04-24T08:33:30;9.60;92.30
54202;DHT22;40108;53.152;5.844;2023-04-24T08:36:06;9.60;92.30
54202;DHT22;40108;53.152;5.844;2023-04-24T08:38:33;9.60;92.30
54202;DHT22;40108;53.152;5.844;2023-04-24T08:41:00;9.50;92.20
54202;DHT22;40108;53.152;5.844;2023-04-24T08:43:26;9.60;91.90
54202;DHT22;40108;53.152;5.844;2023-04-24T08:45:55;9.60;91.30
54202;DHT22;40108;53.152;5.844;2023-04-24T08:48:22;9.60;91.10
54202;DHT22;40108;53.152;5.844;2023-04-24T08:50:51;9.60;91.10
54202;DHT22;40108;53.152;5.844;2023-04-24T08:53:18;9.70;90.80
54202;DHT22;40108;53.152;5.844;2023-04-24T08:55:47;9.80;90.50
54202;DHT22;40108;53.152;5.844;2023-04-24T08:58:14;9.90;90.10
54202;DHT22;40108;53.152;5.844;2023-04-24T09:00:40;9.90;90.00
54202;DHT22;40108;53.152;5.844;2023-04-24T09:03:16;10.00;89.30
54202;DHT22;40108;53.152;5.844;2023-04-24T09:05:47;10.10;88.60
54202;DHT22;40108;53.152;5.844;2023-04-24T09:08:13;10.10;88.00
54202;DHT22;40108;53.152;5.844;2023-04-24T09:10:40;10.20;87.20
54202;DHT22;40108;53.152;5.844;2023-04-24T09:13:06;10.20;87.20
54202;DHT22;40108;53.152;5.844;2023-04-24T09:15:35;10.40;87.40
54202;DHT22;40108;53.152;5.844;2023-04-24T09:18:01;10.60;87.70
54202;DHT22;40108;53.152;5.844;2023-04-24T09:20:27;10.70;87.70
54202;DHT22;40108;53.152;5.844;2023-04-24T09:22:57;10.70;87.20
54202;DHT22;40108;53.152;5.844;2023-04-24T09:25:34;10.60;86.40
54202;DHT22;40108;53.152;5.844;2023-04-24T09:28:05;10.50;86.60
54202;DHT22;40108;53.152;5.844;2023-04-24T09:30:32;10.40;85.50
54202;DHT22;40108;53.152;5.844;2023-04-24T09:33:12;10.30;84.90
54202;DHT22;40108;53.152;5.844;2023-04-24T09:35:52;10.20;84.90
54202;DHT22;40108;53.152;5.844;2023-04-24T09:38:18;10.20;85.90
54202;DHT22;40108;53.152;5.844;2023-04-24T09:40:45;10.20;86.10
54202;DHT22;40108;53.152;5.844;2023-04-24T09:43:11;10.20;86.00
54202;DHT22;40108;53.152;5.844;2023-04-24T09:45:38;10.20;86.20
54202;DHT22;40108;53.152;5.844;2023-04-24T09:48:05;10.10;85.50
54202;DHT22;40108;53.152;5.844;2023-04-24T09:50:34;10.00;84.90
54202;DHT22;40108;53.152;5.844;2023-04-24T09:53:04;10.00;84.60
54202;DHT22;40108;53.152;5.844;2023-04-24T09:55:31;10.00;85.30
54202;DHT22;40108;53.152;5.844;2023-04-24T09:57:58;10.00;85.50
54202;DHT22;40108;53.152;5.844;2023-04-24T10:00:26;9.90;85.60
54202;DHT22;40108;53.152;5.844;2023-04-24T10:03:05;9.90;85.70
54202;DHT22;40108;53.152;5.844;2023-04-24T10:05:36;9.90;85.70
54202;DHT22;40108;53.152;5.844;2023-04-24T10:08:10;9.90;85.80
54202;DHT22;40108;53.152;5.844;2023-04-24T10:10:42;9.90;86.00
54202;DHT22;40108;53.152;5.844;2023-04-24T10:13:13;10.00;86.50
54202;DHT22;40108;53.152;5.844;2023-04-24T10:15:40;10.00;86.20
54202;DHT22;40108;53.152;5.844;2023-04-24T10:18:08;10.10;85.70
54202;DHT22;40108;53.152;5.844;2023-04-24T10:20:35;10.10;86.30
54202;DHT22;40108;53.152;5.844;2023-04-24T10:23:01;10.20;85.50
54202;DHT22;40108;53.152;5.844;2023-04-24T10:25:29;10.20;85.10
54202;DHT22;40108;53.152;5.844;2023-04-24T10:27:57;10.30;84.70
54202;DHT22;40108;53.152;5.844;2023-04-24T10:30:26;10.40;84.90
54202;DHT22;40108;53.152;5.844;2023-04-24T10:32:52;10.40;83.80
54202;DHT22;40108;53.152;5.844;2023-04-24T10:35:18;10.40;83.60
54202;DHT22;40108;53.152;5.844;2023-04-24T10:37:55;10.40;84.00
54202;DHT22;40108;53.152;5.844;2023-04-24T10:40:31;10.50;84.60
54202;DHT22;40108;53.152;5.844;2023-04-24T10:42:59;10.60;84.20
54202;DHT22;40108;53.152;5.844;2023-04-24T10:45:25;10.60;82.60
54202;DHT22;40108;53.152;5.844;2023-04-24T10:47:58;10.60;81.70
54202;DHT22;40108;53.152;5.844;2023-04-24T10:50:29;10.60;82.60
54202;DHT22;40108;53.152;5.844;2023-04-24T10:53:06;10.50;82.30
54202;DHT22;40108;53.152;5.844;2023-04-24T10:58:13;10.30;82.40
54202;DHT22;40108;53.152;5.844;2023-04-24T11:00:41;10.20;82.70
54202;DHT22;40108;53.152;5.844;2023-04-24T11:03:30;10.10;82.90
54202;DHT22;40108;53.152;5.844;2023-04-24T11:06:09;9.90;83.10
54202;DHT22;40108;53.152;5.844;2023-04-24T11:08:43;9.80;83.70
54202;DHT22;40108;53.152;5.844;2023-04-24T11:11:10;9.70;84.40
54202;DHT22;40108;53.152;5.844;2023-04-24T11:16:44;9.50;85.50
54202;DHT22;40108;53.152;5.844;2023-04-24T11:19:19;9.40;86.00
54202;DHT22;40108;53.152;5.844;2023-04-24T11:22:02;9.40;86.00
54202;DHT22;40108;53.152;5.844;2023-04-24T11:24:33;9.40;85.60
54202;DHT22;40108;53.152;5.844;2023-04-24T11:27:12;9.40;85.80
54202;DHT22;40108;53.152;5.844;2023-04-24T11:34:59;9.60;85.30
54202;DHT22;40108;53.152;5.844;2023-04-24T11:37:27;9.70;84.20
54202;DHT22;40108;53.152;5.844;2023-04-24T11:39:55;9.70;83.60
54202;DHT22;40108;53.152;5.844;2023-04-24T11:42:22;9.90;82.50
54202;DHT22;40108;53.152;5.844;2023-04-24T11:44:50;9.90;81.60
54202;DHT22;40108;53.152;5.844;2023-04-24T11:47:17;9.90;82.40
54202;DHT22;40108;53.152;5.844;2023-04-24T11:49:43;10.00;83.00
54202;DHT22;40108;53.152;5.844;2023-04-24T11:52:08;10.10;83.30
54202;DHT22;40108;53.152;5.844;2023-04-24T11:54:36;10.10;83.60
54202;DHT22;40108;53.152;5.844;2023-04-24T11:57:04;10.10;82.80
54202;DHT22;40108;53.152;5.844;2023-04-24T11:59:36;10.10;83.50
54202;DHT22;40108;53.152;5.844;2023-04-24T12:02:03;10.10;84.10
54202;DHT22;40108;53.152;5.844;2023-04-24T12:04:41;10.20;82.60
54202;DHT22;40108;53.152;5.844;2023-04-24T12:07:07;10.30;82.70
54202;DHT22;40108;53.152;5.844;2023-04-24T12:09:46;10.50;82.60
54202;DHT22;40108;53.152;5.844;2023-04-24T12:12:14;10.90;82.20
54202;DHT22;40108;53.152;5.844;2023-04-24T12:14:52;10.90;80.60
54202;DHT22;40108;53.152;5.844;2023-04-24T12:17:24;10.80;79.80
54202;DHT22;40108;53.152;5.844;2023-04-24T12:19:50;10.70;79.80
54202;DHT22;40108;53.152;5.844;2023-04-24T12:22:16;10.70;80.00
54202;DHT22;40108;53.152;5.844;2023-04-24T12:25:03;10.80;80.70
54202;DHT22;40108;53.152;5.844;2023-04-24T12:27:32;10.90;80.30
54202;DHT22;40108;53.152;5.844;2023-04-24T12:30:00;11.10;80.40
54202;DHT22;40108;53.152;5.844;2023-04-24T12:32:27;11.10;78.40
54202;DHT22;40108;53.152;5.844;2023-04-24T12:34:54;11.00;76.60
54202;DHT22;40108;53.152;5.844;2023-04-24T12:37:22;11.00;78.10
54202;DHT22;40108;53.152;5.844;2023-04-24T12:40:02;10.90;78.60
54202;DHT22;40108;53.152;5.844;2023-04-24T12:42:29;10.80;77.70
54202;DHT22;40108;53.152;5.844;2023-04-24T12:45:00;10.70;77.80
54202;DHT22;40108;53.152;5.844;2023-04-24T12:47:30;10.80;77.30
54202;DHT22;40108;53.152;5.844;2023-04-24T12:49:56;10.90;77.60
54202;DHT22;40108;53.152;5.844;2023-04-24T12:52:23;11.10;78.50
54202;DHT22;40108;53.152;5.844;2023-04-24T12:54:56;11.20;78.30
54202;DHT22;40108;53.152;5.844;2023-04-24T12:57:23;11.20;78.50
54202;DHT22;40108;53.152;5.844;2023-04-24T12:59:49;11.10;78.30
54202;DHT22;40108;53.152;5.844;2023-04-24T13:02:16;11.10;78.20
54202;DHT22;40108;53.152;5.844;2023-04-24T13:04:46;10.90;78.60
54202;DHT22;40108;53.152;5.844;2023-04-24T13:07:13;10.70;78.80
54202;DHT22;40108;53.152;5.844;2023-04-24T13:09:39;10.60;79.40
54202;DHT22;40108;53.152;5.844;2023-04-24T13:12:06;10.50;79.80
54202;DHT22;40108;53.152;5.844;2023-04-24T13:14:32;10.40;80.00
54202;DHT22;40108;53.152;5.844;2023-04-24T13:16:58;10.20;80.70
54202;DHT22;40108;53.152;5.844;2023-04-24T13:19:25;10.20;81.30
54202;DHT22;40108;53.152;5.844;2023-04-24T13:21:52;10.20;82.00
54202;DHT22;40108;53.152;5.844;2023-04-24T13:24:18;10.20;82.10
54202;DHT22;40108;53.152;5.844;2023-04-24T13:26:44;10.10;82.20
54202;DHT22;40108;53.152;5.844;2023-04-24T13:29:09;10.00;82.00
54202;DHT22;40108;53.152;5.844;2023-04-24T13:31:35;10.10;82.10
54202;DHT22;40108;53.152;5.844;2023-04-24T13:34:02;10.10;82.30
54202;DHT22;40108;53.152;5.844;2023-04-24T13:36:29;10.10;82.20
54202;DHT22;40108;53.152;5.844;2023-04-24T13:38:55;10.00;82.40
54202;DHT22;40108;53.152;5.844;2023-04-24T13:41:21;10.00;82.90
54202;DHT22;40108;53.152;5.844;2023-04-24T13:43:47;9.90;83.20
54202;DHT22;40108;53.152;5.844;2023-04-24T13:46:13;9.80;83.90
54202;DHT22;40108;53.152;5.844;2023-04-24T13:48:39;9.70;84.20
54202;DHT22;40108;53.152;5.844;2023-04-24T13:51:04;9.70;84.40
54202;DHT22;40108;53.152;5.844;2023-04-24T13:53:30;9.70;84.50
54202;DHT22;40108;53.152;5.844;2023-04-24T13:55:56;9.70;85.00
54202;DHT22;40108;53.152;5.844;2023-04-24T13:58:21;9.70;85.20
54202;DHT22;40108;53.152;5.844;2023-04-24T14:00:47;9.60;85.50
54202;DHT22;40108;53.152;5.844;2023-04-24T14:03:13;9.60;85.70
54202;DHT22;40108;53.152;5.844;2023-04-24T14:05:38;9.50;85.90
54202;DHT22;40108;53.152;5.844;2023-04-24T14:08:04;9.50;85.90
54202;DHT22;40108;53.152;5.844;2023-04-24T14:10:31;9.50;86.10
54202;DHT22;40108;53.152;5.844;2023-04-24T14:12:57;9.60;86.20
54202;DHT22;40108;53.152;5.844;2023-04-24T14:15:23;9.60;86.10
54202;DHT22;40108;53.152;5.844;2023-04-24T14:17:49;9.70;85.80
54202;DHT22;40108;53.152;5.844;2023-04-24T14:20:15;9.70;85.80
54202;DHT22;40108;53.152;5.844;2023-04-24T14:22:41;9.60;85.80
54202;DHT22;40108;53.152;5.844;2023-04-24T14:25:07;9.60;86.10
54202;DHT22;40108;53.152;5.844;2023-04-24T14:27:32;9.60;86.00
54202;DHT22;40108;53.152;5.844;2023-04-24T14:30:00;9.60;86.10
54202;DHT22;40108;53.152;5.844;2023-04-24T14:32:26;9.60;85.90
54202;DHT22;40108;53.152;5.844;2023-04-24T14:34:52;9.60;85.70
54202;DHT22;40108;53.152;5.844;2023-04-24T14:37:18;9.60;85.90
54202;DHT22;40108;53.152;5.844;2023-04-24T14:39:44;9.60;86.00
54202;DHT22;40108;53.152;5.844;2023-04-24T14:42:10;9.50;86.00
54202;DHT22;40108;53.152;5.844;2023-04-24T14:44:36;9.50;86.30
54202;DHT22;40108;53.152;5.844;2023-04-24T14:47:02;9.50;86.30
54202;DHT22;40108;53.152;5.844;2023-04-24T14:49:27;9.50;86.50
54202;DHT22;40108;53.152;5.844;2023-04-24T14:51:53;9.50;86.70
54202;DHT22;40108;53.152;5.844;2023-04-24T14:54:19;9.50;86.80
54202;DHT22;40108;53.152;5.844;2023-04-24T14:56:45;9.50;86.70
54202;DHT22;40108;53.152;5.844;2023-04-24T14:59:11;9.50;86.80
54202;DHT22;40108;53.152;5.844;2023-04-24T15:01:36;9.50;86.90
54202;DHT22;40108;53.152;5.844;2023-04-24T15:04:02;9.40;87.10
54202;DHT22;40108;53.152;5.844;2023-04-24T15:06:29;9.40;87.40
54202;DHT22;40108;53.152;5.844;2023-04-24T15:08:56;9.50;87.60
54202;DHT22;40108;53.152;5.844;2023-04-24T15:11:22;9.50;87.70
54202;DHT22;40108;53.152;5.844;2023-04-24T15:13:48;9.50;87.60
54202;DHT22;40108;53.152;5.844;2023-04-24T15:16:15;9.50;87.90
54202;DHT22;40108;53.152;5.844;2023-04-24T15:18:41;9.40;88.30
54202;DHT22;40108;53.152;5.844;2023-04-24T15:21:07;9.30;88.80
54202;DHT22;40108;53.152;5.844;2023-04-24T15:23:33;9.30;89.50
54202;DHT22;40108;53.152;5.844;2023-04-24T15:25:59;9.30;89.60
54202;DHT22;40108;53.152;5.844;2023-04-24T15:28:25;9.30;89.80
54202;DHT22;40108;53.152;5.844;2023-04-24T15:30:51;9.30;89.80
54202;DHT22;40108;53.152;5.844;2023-04-24T15:33:16;9.40;89.70
54202;DHT22;40108;53.152;5.844;2023-04-24T15:35:42;9.40;89.80
54202;DHT22;40108;53.152;5.844;2023-04-24T15:38:08;9.30;89.90
54202;DHT22;40108;53.152;5.844;2023-04-24T15:40:34;9.20;90.30
54202;DHT22;40108;53.152;5.844;2023-04-24T15:43:00;9.20;90.40
54202;DHT22;40108;53.152;5.844;2023-04-24T15:45:26;9.10;90.70
54202;DHT22;40108;53.152;5.844;2023-04-24T15:47:52;9.10;90.80